Time;durP1;ratioP1;P1;durP2;ratioP2;P2;SDS_P1;SDS_P2;PMS_P1;PMS_P2;Temp;Humidity;BMP_temperature;BMP_pressure;BME280_temperature;BME280_humidity;BME280_pressure;Samples;Min_cycle;Max_cycle;Signal;HPM_P1;HPM_P2
2022/03/02 00:00:07;;;;;;;;;44.50;37.75;;;;;10.22;44.78;101984.72;5098723;27;45418;-45
2022/03/02 00:02:33;;;;;;;;;43.00;34.75;;;;;10.14;45.77;101979.13;5097550;27;46274;-45
2022/03/02 00:04:58;;;;;;;;;48.75;39.00;;;;;10.10;45.88;101975.00;5098090;27;45398;-44
2022/03/02 00:07:23;;;;;;;;;47.75;37.25;;;;;10.04;46.04;101972.81;5098331;27;45609;-44
2022/03/02 00:09:49;;;;;;;;;50.75;37.00;;;;;10.07;46.07;101980.53;5098646;27;45376;-45
2022/03/02 00:12:14;;;;;;;;;42.00;35.50;;;;;10.03;46.25;101974.63;5097735;27;46119;-44
2022/03/02 00:14:40;;;;;;;;;43.75;38.00;;;;;10.03;45.90;101971.09;5098388;27;45218;-44
2022/03/02 00:17:05;;;;;;;;;39.75;33.25;;;;;9.99;46.42;101968.69;5096092;27;45461;-45
2022/03/02 00:19:31;;;;;;;;;55.75;41.00;;;;;9.99;46.28;101967.84;5098546;27;45268;-46
2022/03/02 00:21:56;;;;;;;;;42.25;37.25;;;;;9.87;46.39;101948.31;5097773;27;47254;-45
2022/03/02 00:24:22;;;;;;;;;39.75;34.25;;;;;9.95;45.90;101958.38;5079544;27;45510;-46
2022/03/02 00:26:48;;;;;;;;;49.00;39.00;;;;;9.92;46.35;101961.25;5098065;27;45272;-44
2022/03/02 00:29:13;;;;;;;;;43.75;38.50;;;;;9.87;46.70;101955.44;5098039;27;45508;-44
2022/03/02 00:31:39;;;;;;;;;47.25;39.50;;;;;9.84;47.02;101956.50;5097745;27;46191;-42
2022/03/02 00:34:04;;;;;;;;;52.75;41.00;;;;;9.82;46.85;101952.25;5097762;27;45380;-43
2022/03/02 00:36:29;;;;;;;;;44.00;38.75;;;;;9.80;46.90;101952.38;5097847;27;45414;-44
2022/03/02 00:38:55;;;;;;;;;47.00;39.00;;;;;9.70;46.99;101933.59;5098130;27;45511;-43
2022/03/02 00:41:21;;;;;;;;;35.50;31.00;;;;;9.75;46.52;101946.56;5097601;27;46026;-45
2022/03/02 00:43:47;;;;;;;;;55.75;39.00;;;;;9.74;46.25;101947.53;5097544;27;45823;-43
2022/03/02 00:46:13;;;;;;;;;51.50;38.75;;;;;9.73;46.12;101945.81;5097689;27;45298;-45
2022/03/02 00:48:39;;;;;;;;;46.75;39.00;;;;;9.59;47.38;101927.38;5097943;27;45250;-44
2022/03/02 00:51:06;;;;;;;;;46.75;39.00;;;;;9.70;46.98;101940.72;5096881;27;46103;-43
2022/03/02 00:53:32;;;;;;;;;51.00;40.75;;;;;9.70;47.46;101941.56;5097466;27;45214;-45
2022/03/02 00:55:57;;;;;;;;;46.75;41.00;;;;;9.69;47.12;101936.34;5097667;27;45298;-44
2022/03/02 00:58:22;;;;;;;;;50.25;42.75;;;;;9.71;46.64;101937.94;5097659;27;45224;-45
2022/03/02 01:00:48;;;;;;;;;57.25;41.00;;;;;9.68;47.75;101932.84;5097467;27;47161;-43
2022/03/02 01:03:13;;;;;;;;;50.50;38.50;;;;;9.60;46.54;101921.94;5097578;27;45491;-45
2022/03/02 01:05:39;;;;;;;;;50.50;38.25;;;;;9.66;47.25;101933.94;5097465;27;45287;-46
2022/03/02 01:08:05;;;;;;;;;45.50;35.25;;;;;9.65;47.26;101929.56;5097797;27;45472;-44
2022/03/02 01:10:31;;;;;;;;;47.50;39.50;;;;;9.65;47.08;101933.09;5097253;27;46238;-44
2022/03/02 01:12:56;;;;;;;;;52.50;39.25;;;;;9.67;47.51;101930.31;5097203;27;45499;-45
2022/03/02 01:15:22;;;;;;;;;54.50;39.75;;;;;9.61;47.71;101921.00;5097282;27;45285;-47
2022/03/02 01:17:47;;;;;;;;;52.00;40.50;;;;;9.64;47.89;101930.53;5097325;27;45346;-42
2022/03/02 01:20:13;;;;;;;;;49.75;40.50;;;;;9.62;46.65;101930.66;5097142;27;46327;-43
2022/03/02 01:22:39;;;;;;;;;47.50;36.50;;;;;9.57;47.05;101919.53;5097117;27;45420;-45
2022/03/02 01:25:07;;;;;;;;;48.75;36.50;;;;;9.54;47.37;101925.06;5097369;27;45735;-45
2022/03/02 01:27:33;;;;;;;;;55.00;41.00;;;;;9.50;47.82;101931.53;5097173;27;45481;-44
2022/03/02 01:29:58;;;;;;;;;54.00;37.75;;;;;9.46;47.66;101920.28;5096898;27;46076;-44
2022/03/02 01:32:24;;;;;;;;;50.50;39.75;;;;;9.46;46.70;101920.28;5097409;27;45444;-44
2022/03/02 01:34:49;;;;;;;;;55.25;38.50;;;;;9.41;48.05;101916.28;5100685;27;45429;-46
2022/03/02 01:37:16;;;;;;;;;52.50;38.25;;;;;9.34;47.46;101896.41;5100995;27;45326;-46
2022/03/02 01:39:42;;;;;;;;;46.75;39.50;;;;;9.43;47.41;101917.00;5100512;27;47239;-45
2022/03/02 01:42:07;;;;;;;;;44.50;37.25;;;;;9.39;48.14;101905.75;5100374;27;45382;-45
2022/03/02 01:44:34;;;;;;;;;47.50;39.25;;;;;9.43;47.55;101911.69;5100362;27;45454;-43
2022/03/02 01:46:59;;;;;;;;;44.75;35.75;;;;;9.44;47.79;101906.28;5100789;27;45239;-44
2022/03/02 01:49:25;;;;;;;;;47.50;35.75;;;;;9.47;47.38;101907.84;5100347;27;45373;-45
2022/03/02 01:51:51;;;;;;;;;39.50;36.25;;;;;9.48;46.93;101912.19;5100443;27;45381;-44
2022/03/02 01:54:16;;;;;;;;;51.50;39.50;;;;;9.48;47.59;101912.19;5100269;27;45149;-46
2022/03/02 01:56:42;;;;;;;;;50.50;40.75;;;;;9.49;48.13;101911.25;5100521;27;45381;-46
2022/03/02 01:59:07;;;;;;;;;53.00;39.25;;;;;9.50;47.28;101904.97;5100064;27;45333;-45
2022/03/02 02:01:33;;;;;;;;;45.50;39.25;;;;;9.49;47.13;101895.31;5099020;27;45351;-47
2022/03/02 02:03:59;;;;;;;;;50.50;39.00;;;;;9.50;47.78;101897.84;5100484;27;45407;-46
2022/03/02 02:06:24;;;;;;;;;43.50;37.50;;;;;9.48;46.65;101897.13;5100434;27;45445;-44
2022/03/02 02:08:52;;;;;;;;;57.00;38.75;;;;;9.47;47.00;101894.56;5100235;27;45666;-46
2022/03/02 02:11:18;;;;;;;;;39.25;34.50;;;;;9.36;47.15;101875.94;5100107;27;45509;-44
2022/03/02 02:13:43;;;;;;;;;40.50;32.25;;;;;9.44;47.03;101886.84;5099902;27;45374;-45
2022/03/02 02:16:09;;;;;;;;;44.00;39.00;;;;;9.44;47.46;101882.38;5100362;27;45265;-45
2022/03/02 02:18:35;;;;;;;;;47.50;37.75;;;;;9.35;47.21;101860.94;5099828;27;45905;-43
2022/03/02 02:21:07;;;;;;;;;53.50;35.75;;;;;9.47;47.08;101881.28;5100182;27;45382;-44
2022/03/02 02:23:34;;;;;;;;;47.00;39.25;;;;;9.44;47.10;101870.91;5100030;27;45333;-44
2022/03/02 02:26:00;;;;;;;;;41.00;34.75;;;;;9.32;47.08;101859.38;5099996;27;45342;-45
2022/03/02 02:28:28;;;;;;;;;40.25;36.50;;;;;9.43;47.00;101871.84;5099776;27;45958;-45
2022/03/02 02:30:56;;;;;;;;;51.50;43.75;;;;;9.43;47.44;101869.19;5099686;27;45339;-44
2022/03/02 02:33:22;;;;;;;;;54.75;39.25;;;;;9.39;47.47;101857.09;5099683;27;45267;-46
2022/03/02 02:35:48;;;;;;;;;49.25;39.00;;;;;9.37;47.38;101853.72;5099800;27;45495;-44
2022/03/02 02:38:15;;;;;;;;;51.75;38.25;;;;;9.40;47.63;101856.16;5099270;27;46140;-45
2022/03/02 02:40:41;;;;;;;;;48.25;38.00;;;;;9.39;47.21;101854.44;5099915;27;45361;-44
2022/03/02 02:43:07;;;;;;;;;50.00;39.25;;;;;9.36;47.37;101838.75;5099610;27;45282;-43
2022/03/02 02:45:33;;;;;;;;;55.25;42.00;;;;;9.40;47.62;101845.53;5098260;27;45518;-44
2022/03/02 02:47:58;;;;;;;;;51.00;38.75;;;;;9.38;47.35;101834.16;5099544;27;45319;-44
2022/03/02 02:50:27;;;;;;;;;47.25;38.25;;;;;9.42;47.16;101832.97;5099562;27;45449;-45
2022/03/02 02:52:54;;;;;;;;;50.00;41.25;;;;;9.42;47.85;101835.63;5099502;27;45691;-44
2022/03/02 02:55:22;;;;;;;;;52.00;38.50;;;;;9.43;47.74;101830.19;5099486;27;45316;-44
2022/03/02 02:57:48;;;;;;;;;54.25;40.50;;;;;9.42;46.76;101827.66;5099058;27;45317;-44
2022/03/02 03:00:19;;;;;;;;;61.25;40.75;;;;;9.40;47.16;101825.13;5099007;27;45917;-43
2022/03/02 03:02:49;;;;;;;;;52.75;40.50;;;;;9.34;47.91;101811.44;5099549;27;45311;-45
2022/03/02 03:05:17;;;;;;;;;43.75;36.00;;;;;9.35;47.08;101821.94;5099454;27;45468;-46
2022/03/02 03:07:44;;;;;;;;;46.75;34.00;;;;;9.29;47.87;101805.63;5098980;27;45401;-46
2022/03/02 03:10:11;;;;;;;;;50.00;39.00;;;;;9.28;47.07;101812.75;5099205;27;45432;-46
2022/03/02 03:12:37;;;;;;;;;47.00;38.00;;;;;9.25;47.16;101808.50;5098918;27;45287;-42
2022/03/02 03:15:05;;;;;;;;;43.00;38.00;;;;;9.11;47.75;101790.09;5099451;27;45456;-44
2022/03/02 03:17:30;;;;;;;;;48.00;38.25;;;;;9.22;47.18;101810.53;5098595;27;45338;-44
2022/03/02 03:19:55;;;;;;;;;49.00;38.75;;;;;9.13;47.36;101795.28;5098834;27;45412;-44
2022/03/02 03:22:21;;;;;;;;;51.25;39.50;;;;;9.18;48.41;101809.91;5099305;27;45765;-46
2022/03/02 03:24:46;;;;;;;;;50.25;40.00;;;;;9.16;48.07;101811.84;5099309;27;45365;-43
2022/03/02 03:27:12;;;;;;;;;53.50;41.25;;;;;9.13;47.66;101809.38;5097976;27;45407;-44
2022/03/02 03:29:37;;;;;;;;;55.00;41.25;;;;;9.11;47.82;101808.66;5098742;27;45284;-44
2022/03/02 03:32:04;;;;;;;;;48.25;40.25;;;;;9.12;47.46;101813.00;5098957;27;45632;-45
2022/03/02 03:34:29;;;;;;;;;46.50;34.50;;;;;9.13;47.66;101817.34;5099220;27;45324;-47
2022/03/02 03:36:55;;;;;;;;;48.25;37.00;;;;;9.13;48.02;101813.84;5098481;27;45462;-46
2022/03/02 03:39:20;;;;;;;;;42.50;39.25;;;;;9.13;47.91;101809.38;5098819;27;45390;-44
2022/03/02 03:41:45;;;;;;;;;46.25;37.00;;;;;9.13;47.35;101809.38;5098634;27;45287;-46
2022/03/02 03:44:11;;;;;;;;;40.25;28.50;;;;;9.12;47.40;101805.06;5098769;27;45385;-44
2022/03/02 03:46:36;;;;;;;;;50.25;35.25;;;;;9.15;47.72;101798.69;5098606;27;45694;-43
2022/03/02 03:49:02;;;;;;;;;45.50;38.50;;;;;9.16;47.49;101801.22;5098556;27;45302;-47
2022/03/02 03:51:28;;;;;;;;;53.50;35.75;;;;;9.16;47.71;101795.91;5098671;27;45323;-45
2022/03/02 03:53:54;;;;;;;;;44.25;37.25;;;;;9.17;47.49;101791.44;5080268;27;45317;-46
2022/03/02 03:56:19;;;;;;;;;46.25;36.75;;;;;9.17;47.41;101794.94;5097819;27;47117;-46
2022/03/02 03:58:44;;;;;;;;;39.25;35.50;;;;;9.17;47.92;101794.94;5098287;27;45359;-44
2022/03/02 04:01:10;;;;;;;;;46.50;40.75;;;;;9.15;47.15;101794.22;5098446;27;45293;-45
2022/03/02 04:03:36;;;;;;;;;45.75;37.50;;;;;9.19;47.67;101792.19;5098606;27;45367;-44
2022/03/02 04:06:03;;;;;;;;;40.75;38.00;;;;;9.19;47.53;101793.03;5098319;27;47081;-44
2022/03/02 04:08:30;;;;;;;;;45.75;37.75;;;;;9.17;47.44;101783.47;5098159;27;45358;-43
2022/03/02 04:10:55;;;;;;;;;44.50;37.75;;;;;9.17;47.42;101792.28;5098318;27;45297;-47
2022/03/02 04:13:21;;;;;;;;;54.75;41.00;;;;;9.15;47.92;101793.38;5098309;27;45355;-43
2022/03/02 04:15:46;;;;;;;;;57.50;42.00;;;;;9.15;47.45;101794.22;5097947;27;45618;-46
2022/03/02 04:18:12;;;;;;;;;51.50;41.75;;;;;9.16;47.47;101790.59;5098045;27;45324;-45
2022/03/02 04:20:38;;;;;;;;;42.00;35.00;;;;;9.16;47.59;101785.28;5097918;27;45887;-43
2022/03/02 04:23:05;;;;;;;;;52.50;40.75;;;;;9.09;46.67;101780.53;5098392;27;45359;-45
2022/03/02 04:25:30;;;;;;;;;42.25;36.00;;;;;9.10;47.37;101783.09;5097651;27;45508;-45
2022/03/02 04:27:56;;;;;;;;;42.25;36.75;;;;;9.07;46.93;101785.13;5097795;27;45482;-44
2022/03/02 04:30:22;;;;;;;;;46.50;37.00;;;;;8.99;46.96;101765.28;5097957;27;45389;-44
2022/03/02 04:32:47;;;;;;;;;50.00;41.25;;;;;8.97;47.41;101763.69;5098104;27;45221;-45
2022/03/02 04:35:13;;;;;;;;;48.50;39.50;;;;;8.99;47.32;101752.00;5097760;27;46878;-44
2022/03/02 04:37:39;;;;;;;;;48.75;40.75;;;;;8.98;46.84;101749.47;5097656;27;45461;-44
2022/03/02 04:40:07;;;;;;;;;37.50;29.50;;;;;9.06;47.63;101771.00;5098088;27;45338;-44
2022/03/02 04:42:33;;;;;;;;;48.00;36.75;;;;;9.06;46.70;101765.69;5097720;27;45319;-44
2022/03/02 04:44:58;;;;;;;;;44.50;35.75;;;;;9.05;46.72;101758.66;5097170;27;45450;-47
2022/03/02 04:47:24;;;;;;;;;43.75;35.50;;;;;9.06;47.27;101751.53;5097899;27;45334;-44
2022/03/02 04:49:50;;;;;;;;;54.25;40.75;;;;;9.06;46.55;101752.41;5097749;27;45390;-48
2022/03/02 04:52:15;;;;;;;;;36.00;30.50;;;;;9.01;46.92;101746.56;5098154;27;45320;-44
2022/03/02 04:57:24;;;;;;;;;42.25;38.75;;;;;9.03;46.92;101749.13;5097518;27;45412;-45
2022/03/02 04:59:50;;;;;;;;;44.75;35.50;;;;;9.01;46.71;101754.53;5097690;27;45842;-45
2022/03/02 05:02:17;;;;;;;;;42.50;35.00;;;;;8.99;47.40;101757.31;5097682;27;45512;-43
2022/03/02 05:04:42;;;;;;;;;49.00;38.25;;;;;8.94;47.56;101750.66;5097425;27;45323;-44
2022/03/02 05:07:08;;;;;;;;;50.75;36.75;;;;;8.94;47.41;101751.50;5096382;27;45342;-45
2022/03/02 05:09:33;;;;;;;;;41.25;37.25;;;;;8.92;47.72;101752.56;5097307;27;45310;-46
2022/03/02 05:11:58;;;;;;;;;59.50;40.00;;;;;8.91;47.73;101754.38;5097633;27;45355;-45
2022/03/02 05:14:24;;;;;;;;;42.00;34.25;;;;;8.92;47.40;101749.91;5096945;27;46061;-45
2022/03/02 05:16:50;;;;;;;;;48.50;34.75;;;;;8.93;47.31;101747.16;5097008;27;45688;-46
2022/03/02 05:19:15;;;;;;;;;41.50;39.00;;;;;8.91;47.44;101737.59;5097144;27;45878;-45
2022/03/02 05:21:40;;;;;;;;;42.75;35.75;;;;;8.92;47.09;101736.63;5079244;27;45394;-45
2022/03/02 05:24:06;;;;;;;;;51.75;37.50;;;;;8.94;47.28;101742.69;5096944;27;45322;-43
2022/03/02 05:26:32;;;;;;;;;45.25;35.50;;;;;8.91;46.73;101742.91;5097260;27;45261;-45
2022/03/02 05:28:57;;;;;;;;;45.25;36.00;;;;;8.86;47.36;101743.25;5097364;27;45441;-44
2022/03/02 05:31:24;;;;;;;;;45.50;37.75;;;;;8.85;47.58;101748.66;5097237;27;45386;-46
2022/03/02 05:33:51;;;;;;;;;48.00;38.00;;;;;8.82;46.90;101728.50;5097070;27;46130;-44
2022/03/02 05:36:17;;;;;;;;;52.25;35.00;;;;;8.80;47.68;101721.59;5096777;27;45314;-45
2022/03/02 05:38:42;;;;;;;;;50.00;37.75;;;;;8.80;48.31;101729.56;5096966;27;45399;-41
2022/03/02 05:41:07;;;;;;;;;55.75;41.00;;;;;8.80;47.45;101727.75;5097192;27;45380;-46
2022/03/02 05:43:33;;;;;;;;;48.75;39.50;;;;;8.79;47.52;101731.38;5096843;27;46187;-45
2022/03/02 05:45:58;;;;;;;;;54.75;40.00;;;;;8.80;46.67;101729.56;5096557;27;45322;-45
2022/03/02 05:48:23;;;;;;;;;52.25;38.00;;;;;8.80;48.58;101729.56;5096848;27;45248;-44
2022/03/02 05:50:49;;;;;;;;;48.00;41.25;;;;;8.75;47.48;101728.09;5097338;27;45864;-46
2022/03/02 05:53:14;;;;;;;;;37.75;32.00;;;;;8.74;47.32;101720.25;5096673;27;47158;-44
2022/03/02 05:55:39;;;;;;;;;44.25;36.75;;;;;8.73;47.52;101732.69;5096833;27;45328;-45
2022/03/02 05:58:05;;;;;;;;;54.25;41.25;;;;;8.71;48.74;101728.44;5096767;27;45230;-44
2022/03/02 06:00:30;;;;;;;;;43.00;37.50;;;;;8.63;48.50;101720.16;5097016;27;45310;-48
2022/03/02 06:02:55;;;;;;;;;36.75;26.00;;;;;8.67;48.23;101733.09;5096399;27;47020;-44
2022/03/02 06:05:21;;;;;;;;;49.25;37.50;;;;;8.63;47.99;101720.16;5096423;27;45474;-42
2022/03/02 06:07:46;;;;;;;;;44.75;39.50;;;;;8.61;47.45;101725.59;5096874;27;45590;-44
2022/03/02 06:10:13;;;;;;;;;50.00;42.75;;;;;8.59;48.12;101724.84;5078380;27;45483;-44
2022/03/02 06:12:39;;;;;;;;;34.75;28.50;;;;;8.58;48.30;101733.75;5096541;27;46075;-46
2022/03/02 06:15:07;;;;;;;;;49.75;37.00;;;;;8.56;47.84;101732.19;5096390;27;45347;-45
2022/03/02 06:17:32;;;;;;;;;52.50;41.25;;;;;8.53;48.67;101730.59;5096487;27;45509;-44
2022/03/02 06:19:58;;;;;;;;;44.75;33.50;;;;;8.41;48.84;101724.34;5099301;27;45393;-44
2022/03/02 06:22:27;;;;;;;;;50.00;39.25;;;;;8.49;47.62;101726.47;5099917;27;46106;-45
2022/03/02 06:24:53;;;;;;;;;52.25;41.50;;;;;8.46;47.88;101724.88;5099739;27;45489;-45
2022/03/02 06:27:20;;;;;;;;;46.25;38.50;;;;;8.44;48.09;101725.97;5099885;27;45355;-43
2022/03/02 06:29:46;;;;;;;;;41.75;35.00;;;;;8.44;48.21;101725.97;5100097;27;45337;-44
2022/03/02 06:32:11;;;;;;;;;48.75;40.50;;;;;8.43;48.30;101719.81;5099352;27;45487;-45
2022/03/02 06:34:37;;;;;;;;;60.50;44.00;;;;;8.43;49.19;101719.81;5099674;27;45373;-43
2022/03/02 06:37:03;;;;;;;;;40.75;31.50;;;;;8.43;48.15;101718.97;5099672;27;45377;-45
2022/03/02 06:39:28;;;;;;;;;48.50;40.50;;;;;8.45;48.02;101727.63;5100274;27;45489;-45
2022/03/02 06:42:09;;;;;;;;;49.50;39.00;;;;;8.43;48.71;101725.13;5099823;27;45411;-46
2022/03/02 06:44:44;;;;;;;;;58.00;41.25;;;;;8.44;48.15;101721.50;5099605;27;45567;-43
2022/03/02 06:47:13;;;;;;;;;41.25;35.00;;;;;8.44;49.16;101723.31;5099649;27;45314;-45
2022/03/02 06:50:03;;;;;;;;;53.75;40.75;;;;;8.48;48.37;101738.03;5100567;27;45345;-45
2022/03/02 06:52:37;;;;;;;;;52.75;42.25;;;;;8.48;48.25;101732.75;5100032;27;47286;-44
2022/03/02 06:55:06;;;;;;;;;54.00;43.25;;;;;8.44;48.31;101720.66;5099864;27;45346;-45
2022/03/02 06:57:33;;;;;;;;;51.25;40.75;;;;;8.53;48.84;101738.56;5099554;27;45339;-45
2022/03/02 07:00:04;;;;;;;;;42.00;35.75;;;;;8.56;47.65;101730.38;5099593;27;45472;-43
2022/03/02 07:02:45;;;;;;;;;47.75;33.25;;;;;8.45;48.58;101714.38;5099318;27;46169;-43
2022/03/02 07:05:10;;;;;;;;;41.00;38.75;;;;;8.56;48.61;101733.03;5098360;27;45472;-45
2022/03/02 07:07:36;;;;;;;;;56.00;42.00;;;;;8.63;48.32;101741.38;5099330;27;45603;-44
2022/03/02 07:10:03;;;;;;;;;50.25;39.50;;;;;8.61;48.24;101730.91;5099469;27;45302;-44
2022/03/02 07:12:29;;;;;;;;;44.25;35.75;;;;;8.58;47.33;101731.13;5099021;27;46476;-46
2022/03/02 07:14:54;;;;;;;;;48.50;34.50;;;;;8.64;48.82;101741.31;5099222;27;45394;-44
2022/03/02 07:17:23;;;;;;;;;46.25;36.25;;;;;8.65;48.43;101740.34;5099007;27;45693;-44
2022/03/02 07:19:50;;;;;;;;;50.50;39.75;;;;;8.67;48.15;101743.72;5099338;27;45437;-44
2022/03/02 07:22:21;;;;;;;;;42.75;39.00;;;;;8.67;48.06;101748.16;5080317;27;48263;-46
2022/03/02 07:24:58;;;;;;;;;44.50;35.50;;;;;8.67;48.13;101745.53;5097978;27;45469;-45
2022/03/02 07:27:25;;;;;;;;;42.00;36.00;;;;;8.72;48.10;101748.69;5099017;27;45382;-45
2022/03/02 07:29:53;;;;;;;;;38.25;30.25;;;;;8.77;47.92;101748.38;5098904;27;45379;-43
2022/03/02 07:32:26;;;;;;;;;48.75;36.75;;;;;8.81;47.07;101740.09;5098147;27;46601;-46
2022/03/02 07:34:57;;;;;;;;;46.00;37.25;;;;;8.77;48.36;101735.13;5097798;27;45294;-45
2022/03/02 07:37:23;;;;;;;;;49.00;38.25;;;;;8.78;47.92;101740.31;5098669;27;45355;-45
2022/03/02 07:39:50;;;;;;;;;52.00;39.75;;;;;8.82;47.44;101751.53;5080657;27;45326;-46
2022/03/02 07:42:15;;;;;;;;;45.50;37.25;;;;;8.90;47.64;101749.19;5097341;27;45619;-45
2022/03/02 07:44:41;;;;;;;;;37.00;32.25;;;;;9.00;48.25;101743.09;5098230;27;45173;-43
2022/03/02 07:47:08;;;;;;;;;53.75;38.50;;;;;9.05;47.88;101728.63;5098513;27;45508;-45
2022/03/02 07:49:34;;;;;;;;;50.75;39.75;;;;;9.17;47.21;101733.03;5098521;27;45497;-45
2022/03/02 07:52:02;;;;;;;;;47.50;38.50;;;;;9.20;47.75;101730.16;5098278;27;46230;-44
2022/03/02 07:54:30;;;;;;;;;51.75;40.75;;;;;9.22;47.31;101721.09;5098100;27;45413;-43
2022/03/02 07:56:57;;;;;;;;;51.75;39.25;;;;;9.30;47.63;101733.81;5098317;27;45285;-44
2022/03/02 07:59:22;;;;;;;;;49.00;43.25;;;;;9.31;46.74;101727.53;5098583;27;45366;-47
2022/03/02 08:01:48;;;;;;;;;56.25;41.00;;;;;9.33;47.15;101730.09;5098135;27;46065;-44
2022/03/02 08:04:14;;;;;;;;;48.25;39.00;;;;;9.40;47.19;101726.88;5098373;27;45296;-45
2022/03/02 08:06:41;;;;;;;;;50.25;39.00;;;;;9.54;47.38;101727.63;5098221;27;45417;-44
2022/03/02 08:09:09;;;;;;;;;45.50;39.25;;;;;9.65;47.29;101720.56;5098557;27;45449;-45
2022/03/02 08:11:40;;;;;;;;;49.75;40.25;;;;;9.74;47.02;101717.19;5098141;27;46257;-44
2022/03/02 08:14:06;;;;;;;;;46.75;38.25;;;;;9.84;46.68;101719.97;5098247;27;45350;-46
2022/03/02 08:16:32;;;;;;;;;50.00;39.75;;;;;9.93;46.53;101723.75;5098063;27;45313;-47
2022/03/02 08:19:00;;;;;;;;;54.75;38.25;;;;;10.01;46.22;101721.34;5098185;27;45315;-45
2022/03/02 08:21:28;;;;;;;;;50.75;41.50;;;;;10.07;45.46;101718.22;5097179;27;46221;-46
2022/03/02 08:23:57;;;;;;;;;49.00;40.00;;;;;10.07;45.67;101726.19;5097746;27;45350;-44
2022/03/02 08:26:23;;;;;;;;;39.00;34.50;;;;;10.11;45.71;101721.47;5097778;27;45302;-46
2022/03/02 08:28:54;;;;;;;;;41.75;37.75;;;;;10.15;45.09;101715.78;5097958;27;45529;-46
2022/03/02 08:31:20;;;;;;;;;50.00;40.00;;;;;10.21;45.20;101723.28;5096813;27;46072;-46
2022/03/02 08:33:46;;;;;;;;;43.50;36.50;;;;;10.27;45.09;101719.31;5079417;27;45492;-45
2022/03/02 08:36:13;;;;;;;;;56.75;39.00;;;;;10.32;45.16;101714.47;5098018;27;45374;-53
2022/03/02 08:38:42;;;;;;;;;52.75;41.00;;;;;10.40;44.73;101721.84;5097722;27;45473;-50
2022/03/02 08:41:10;;;;;;;;;53.00;42.00;;;;;10.45;44.62;101728.53;5097391;27;46247;-49
2022/03/02 08:43:36;;;;;;;;;39.75;34.50;;;;;10.58;44.30;101731.06;5097704;27;45654;-51
2022/03/02 08:46:03;;;;;;;;;43.75;33.50;;;;;10.67;44.57;101730.31;5078919;27;45547;-51
2022/03/02 08:48:28;;;;;;;;;52.25;39.50;;;;;10.71;44.34;101738.91;5097733;27;45302;-51
2022/03/02 08:50:57;;;;;;;;;39.00;31.00;;;;;10.72;44.10;101730.78;5097407;27;46350;-52
2022/03/02 08:53:25;;;;;;;;;54.75;41.00;;;;;10.79;44.33;101730.28;5097572;27;45299;-49
2022/03/02 08:55:51;;;;;;;;;49.75;39.00;;;;;10.91;43.98;101727.50;5097701;27;45622;-51
2022/03/02 08:58:17;;;;;;;;;45.00;34.75;;;;;11.05;43.64;101729.03;5097584;27;45307;-47
2022/03/02 09:00:42;;;;;;;;;47.75;38.00;;;;;11.16;43.19;101725.47;5097265;27;45997;-54
2022/03/02 09:03:12;;;;;;;;;45.00;34.50;;;;;11.34;42.81;101723.97;5097241;27;45353;-49
2022/03/02 09:05:38;;;;;;;;;37.50;31.75;;;;;11.55;42.75;101723.97;5097768;27;45301;-48
2022/03/02 09:08:04;;;;;;;;;45.50;35.50;;;;;11.51;41.83;101719.88;5097699;27;45322;-50
2022/03/02 09:10:29;;;;;;;;;50.75;35.50;;;;;11.39;41.98;101715.56;5097454;27;46261;-50
2022/03/02 09:12:56;;;;;;;;;44.75;34.75;;;;;11.41;42.19;101717.13;5097303;27;45230;-49
2022/03/02 09:15:22;;;;;;;;;38.50;34.25;;;;;11.40;41.71;101712.78;5097416;27;45169;-50
2022/03/02 09:17:47;;;;;;;;;46.00;35.75;;;;;11.33;41.95;101706.25;5097195;27;45295;-52
2022/03/02 09:20:13;;;;;;;;;43.25;35.25;;;;;11.38;41.84;101713.91;5096708;27;46116;-51
2022/03/02 09:22:41;;;;;;;;;52.50;35.00;;;;;11.41;42.01;101717.13;5097189;27;45307;-50
2022/03/02 09:25:07;;;;;;;;;53.25;39.75;;;;;11.49;41.85;101714.66;5097211;27;45398;-52
2022/03/02 09:27:34;;;;;;;;;38.25;30.75;;;;;11.57;41.76;101703.38;5097485;27;45299;-52
2022/03/02 09:30:03;;;;;;;;;40.00;32.50;;;;;11.67;42.29;101701.63;5096845;27;46475;-51
2022/03/02 09:32:30;;;;;;;;;42.75;36.25;;;;;11.62;41.42;101689.66;5096741;27;45383;-50
2022/03/02 09:35:00;;;;;;;;;40.50;33.00;;;;;11.65;41.00;101698.22;5097048;27;45353;-51
2022/03/02 09:37:27;;;;;;;;;50.00;34.75;;;;;11.57;41.29;101707.84;5096957;27;45432;-48
2022/03/02 09:39:53;;;;;;;;;44.25;34.50;;;;;11.47;41.20;101700.63;5096928;27;46140;-51
2022/03/02 09:42:25;;;;;;;;;47.75;38.75;;;;;11.35;41.36;101703.50;5096837;27;45585;-52
2022/03/02 09:45:07;;;;;;;;;45.25;32.75;;;;;11.36;41.62;101699.84;5097114;27;45355;-51
2022/03/02 09:47:53;;;;;;;;;51.25;37.00;;;;;11.42;41.38;101702.00;5097054;27;45252;-50
2022/03/02 09:50:22;;;;;;;;;38.50;35.75;;;;;11.46;41.35;101696.28;5096636;27;46879;-56
2022/03/02 09:52:48;;;;;;;;;51.00;36.00;;;;;11.37;41.07;101682.88;5096770;27;45412;-52
2022/03/02 09:55:17;;;;;;;;;55.25;39.00;;;;;11.51;41.27;101687.91;5098777;27;45401;-56
2022/03/02 09:57:48;;;;;;;;;42.00;35.75;;;;;11.60;41.10;101684.47;5100693;27;45335;-56
2022/03/02 10:00:17;;;;;;;;;42.25;31.75;;;;;11.69;40.86;101697.00;5101811;27;46327;-54
2022/03/02 10:02:47;;;;;;;;;46.75;36.00;;;;;11.69;40.68;101699.66;5101164;27;45297;-52
2022/03/02 10:05:25;;;;;;;;;52.00;34.00;;;;;11.68;41.01;101683.81;5101311;27;45369;-53
2022/03/02 10:08:03;;;;;;;;;47.25;37.50;;;;;11.84;40.92;101694.00;5100311;27;45420;-56
2022/03/02 10:10:32;;;;;;;;;45.25;34.00;;;;;11.99;41.00;101700.72;5098985;27;46403;-52
2022/03/02 10:12:59;;;;;;;;;40.50;35.50;;;;;12.05;41.04;101689.53;5100163;27;45374;-54
2022/03/02 10:15:25;;;;;;;;;43.50;35.00;;;;;12.11;40.95;101694.31;5099945;27;45370;-55
2022/03/02 10:17:52;;;;;;;;;31.50;31.50;;;;;12.05;39.69;101686.84;5100114;27;45519;-51
2022/03/02 10:20:21;;;;;;;;;44.75;36.50;;;;;12.28;40.26;101689.31;5099735;27;45335;-53
2022/03/02 10:22:47;;;;;;;;;39.25;32.25;;;;;12.51;39.65;101692.63;5099942;27;45377;-55
2022/03/02 10:25:16;;;;;;;;;45.75;34.50;;;;;12.74;38.95;101678.91;5100239;27;45488;-57
2022/03/02 10:28:02;;;;;;;;;47.25;32.75;;;;;12.96;38.96;101667.13;5100081;27;45505;-56
2022/03/02 10:30:32;;;;;;;;;41.25;36.00;;;;;13.31;38.34;101675.59;5099714;27;45596;-56
2022/03/02 10:33:11;;;;;;;;;36.50;30.75;;;;;13.64;37.84;101671.63;5098641;27;45485;-56
2022/03/02 10:35:45;;;;;;;;;38.25;32.00;;;;;13.98;38.28;101661.25;5100045;27;45322;-56
2022/03/02 10:38:16;;;;;;;;;39.75;34.25;;;;;14.19;37.53;101672.56;5099964;27;45389;-58
2022/03/02 10:40:43;;;;;;;;;45.50;33.00;;;;;14.30;37.12;101668.03;5099550;27;47234;-56
2022/03/02 10:43:18;;;;;;;;;41.25;35.00;;;;;14.51;35.75;101659.78;5099693;27;45401;-55
2022/03/02 10:45:49;;;;;;;;;43.33;34.00;;;;;14.80;35.78;101663.09;5099495;27;45406;-56
2022/03/02 10:48:28;;;;;;;;;43.25;35.00;;;;;15.05;35.15;101648.09;5099594;27;45430;-54
2022/03/02 10:50:56;;;;;;;;;42.67;35.33;;;;;15.56;34.30;101645.66;5099053;27;46798;-57
2022/03/02 10:53:30;;;;;;;;;51.33;36.00;;;;;15.96;33.75;101642.38;5099061;27;45426;-56
2022/03/02 10:55:57;;;;;;;;;52.67;38.00;;;;;16.36;33.56;101641.75;5099246;27;45301;-56
2022/03/02 10:58:27;;;;;;;;;42.67;35.67;;;;;16.71;32.87;101637.97;5099523;27;45357;-56
2022/03/02 11:00:53;;;;;;;;;48.00;39.67;;;;;17.06;32.20;101632.47;5099030;27;47509;-55
2022/03/02 11:03:20;;;;;;;;;42.00;35.00;;;;;17.22;31.56;101624.41;5097773;27;45386;-56
2022/03/02 11:05:45;;;;;;;;;48.00;36.00;;;;;17.49;31.51;101622.38;5098266;27;45380;-57
2022/03/02 11:08:11;;;;;;;;;44.00;32.67;;;;;17.89;31.47;101605.31;5099602;27;45317;-57
2022/03/02 11:10:40;;;;;;;;;45.00;35.33;;;;;18.43;31.08;101622.41;5099254;27;46143;-56
2022/03/02 11:13:12;;;;;;;;;40.00;36.00;;;;;18.85;31.66;101618.47;5099098;27;45400;-55
2022/03/02 11:15:48;;;;;;;;;43.33;36.00;;;;;19.22;30.71;101619.53;5099355;27;45738;-56